createdAt,value
2018-12-18T00:01:54.101Z,92.10
2018-12-18T00:04:22.157Z,92.10
2018-12-18T00:06:50.258Z,92.20
2018-12-18T00:09:18.322Z,92.20
2018-12-18T00:11:46.387Z,92.20
2018-12-18T00:14:14.463Z,92.20
2018-12-18T00:16:42.708Z,92.30
2018-12-18T00:19:10.758Z,92.20
2018-12-18T00:21:38.829Z,92.20
2018-12-18T00:24:06.904Z,92.10
2018-12-18T00:26:34.978Z,92.10
2018-12-18T00:29:03.110Z,92.10
2018-12-18T00:31:34.166Z,92.10
2018-12-18T00:34:02.387Z,92.10
2018-12-18T00:36:30.538Z,92.00
2018-12-18T00:38:58.591Z,92.10
2018-12-18T00:41:26.651Z,92.00
2018-12-18T00:43:54.753Z,92.00
2018-12-18T00:46:22.795Z,92.00
2018-12-18T00:48:50.847Z,91.90
2018-12-18T00:51:18.910Z,92.00
2018-12-18T00:53:46.962Z,91.90
2018-12-18T00:56:15.030Z,91.90
2018-12-18T00:58:44.299Z,91.90
2018-12-18T01:01:12.355Z,92.00
2018-12-18T01:03:40.407Z,92.00
2018-12-18T01:06:08.590Z,92.00
2018-12-18T01:08:36.642Z,92.00
2018-12-18T01:11:04.758Z,92.00
2018-12-18T01:13:32.806Z,92.00
2018-12-18T01:16:00.961Z,92.00
2018-12-18T01:18:29.010Z,91.90
2018-12-18T01:20:57.109Z,91.90
2018-12-18T01:23:25.434Z,91.90
2018-12-18T01:25:53.526Z,91.90
2018-12-18T01:28:21.587Z,91.90
2018-12-18T01:30:49.695Z,92.00
2018-12-18T01:33:17.760Z,92.00
2018-12-18T01:35:45.816Z,92.10
2018-12-18T01:38:13.961Z,92.10
2018-12-18T01:40:42.126Z,92.10
2018-12-18T01:43:10.195Z,92.10
2018-12-18T01:45:38.280Z,91.80
2018-12-18T01:48:06.338Z,92.10
2018-12-18T01:50:34.392Z,92.10
2018-12-18T01:53:02.574Z,92.10
2018-12-18T01:55:30.639Z,92.20
2018-12-18T01:57:58.694Z,92.20
2018-12-18T02:00:26.823Z,92.20
2018-12-18T02:02:54.951Z,92.30
2018-12-18T02:05:23.775Z,92.20
2018-12-18T02:07:51.903Z,92.30
2018-12-18T02:10:19.951Z,92.30
2018-12-18T02:12:48.007Z,92.40
2018-12-18T02:15:16.104Z,92.30
2018-12-18T02:17:44.161Z,92.30
2018-12-18T02:20:12.247Z,92.30
2018-12-18T02:22:40.341Z,92.20
2018-12-18T02:25:08.467Z,92.10
2018-12-18T02:27:36.601Z,92.20
2018-12-18T02:30:06.300Z,92.20
2018-12-18T02:32:34.447Z,92.20
2018-12-18T02:35:02.542Z,92.20
2018-12-18T02:37:30.685Z,92.30
2018-12-18T02:39:58.790Z,92.30
2018-12-18T02:42:26.920Z,92.40
2018-12-18T02:44:55.098Z,92.40
2018-12-18T02:47:24.110Z,92.40
2018-12-18T02:49:52.166Z,92.40
2018-12-18T02:52:20.222Z,92.40
2018-12-18T02:54:48.278Z,92.40
2018-12-18T02:57:16.335Z,92.60
2018-12-18T02:59:44.379Z,92.50
2018-12-18T03:02:12.471Z,92.50
2018-12-18T03:04:40.528Z,92.40
2018-12-18T03:07:08.661Z,92.30
2018-12-18T03:09:36.721Z,92.30
2018-12-18T03:12:04.888Z,92.30
2018-12-18T03:14:32.994Z,92.20
2018-12-18T03:17:01.122Z,92.20
2018-12-18T03:19:29.185Z,92.20
2018-12-18T03:21:57.239Z,92.20
2018-12-18T03:24:25.303Z,92.10
2018-12-18T03:26:53.346Z,92.10
2018-12-18T03:29:22.069Z,92.00
2018-12-18T03:31:51.958Z,92.00
2018-12-18T03:34:20.087Z,91.90
2018-12-18T03:36:48.153Z,91.90
2018-12-18T03:39:16.208Z,91.90
2018-12-18T03:41:44.386Z,91.90
2018-12-18T03:44:12.430Z,91.90
2018-12-18T03:46:40.630Z,91.90
2018-12-18T03:49:08.682Z,91.90
2018-12-18T03:51:36.735Z,91.90
2018-12-18T03:54:04.964Z,92.00
2018-12-18T03:56:33.086Z,92.00
2018-12-18T03:59:01.147Z,92.00
2018-12-18T04:01:29.203Z,92.10
2018-12-18T04:03:57.266Z,92.10
2018-12-18T04:06:25.318Z,92.10
2018-12-18T04:08:53.477Z,92.20
2018-12-18T04:11:21.710Z,92.10
2018-12-18T04:13:49.851Z,92.20
2018-12-18T04:16:17.931Z,92.20
2018-12-18T04:18:46.142Z,92.10
2018-12-18T04:21:14.204Z,92.20
2018-12-18T04:23:42.350Z,92.10
2018-12-18T04:26:10.446Z,92.40
2018-12-18T04:28:38.506Z,92.10
2018-12-18T04:31:06.607Z,91.90
2018-12-18T04:33:34.648Z,91.90
2018-12-18T04:36:02.702Z,91.80
2018-12-18T04:38:30.768Z,91.80
2018-12-18T04:40:58.824Z,91.80
2018-12-18T04:43:26.903Z,91.80
2018-12-18T04:45:54.964Z,91.80
2018-12-18T04:48:23.094Z,91.80
2018-12-18T04:50:51.146Z,91.80
2018-12-18T04:53:19.210Z,91.80
2018-12-18T04:55:47.621Z,91.80
2018-12-18T04:58:15.671Z,91.90
2018-12-18T05:00:43.810Z,91.80
2018-12-18T05:03:11.943Z,91.80
2018-12-18T05:05:40.025Z,91.80
2018-12-18T05:08:08.124Z,91.80
2018-12-18T05:10:36.182Z,91.80
2018-12-18T05:13:04.283Z,91.80
2018-12-18T05:15:32.330Z,92.20
2018-12-18T05:18:00.387Z,91.90
2018-12-18T05:20:28.523Z,91.90
2018-12-18T05:22:56.642Z,91.90
2018-12-18T05:25:24.785Z,91.80
2018-12-18T05:27:52.848Z,91.80
2018-12-18T05:30:20.898Z,91.80
2018-12-18T05:32:49.906Z,91.90
2018-12-18T05:35:17.981Z,91.90
2018-12-18T05:37:46.034Z,91.90
2018-12-18T05:40:14.080Z,91.90
2018-12-18T05:42:42.155Z,92.00
2018-12-18T05:45:10.230Z,92.10
2018-12-18T05:47:38.287Z,92.20
2018-12-18T05:50:07.026Z,92.10
2018-12-18T05:52:35.074Z,92.10
2018-12-18T05:55:03.228Z,92.10
2018-12-18T05:57:31.287Z,92.00
2018-12-18T05:59:59.478Z,92.00
2018-12-18T06:02:27.525Z,92.00
2018-12-18T06:04:55.662Z,92.10
2018-12-18T06:07:23.732Z,92.10
2018-12-18T06:09:51.873Z,92.10
2018-12-18T06:12:19.935Z,92.10
2018-12-18T06:14:48.010Z,92.00
2018-12-18T06:17:16.064Z,92.00
2018-12-18T06:19:44.306Z,92.00
2018-12-18T06:22:12.372Z,92.10
2018-12-18T06:24:40.435Z,92.00
2018-12-18T06:27:08.490Z,92.00
2018-12-18T06:29:36.563Z,91.90
2018-12-18T06:32:04.696Z,91.90
2018-12-18T06:34:32.828Z,91.90
2018-12-18T06:37:00.889Z,92.00
2018-12-18T06:39:29.469Z,92.00
2018-12-18T06:41:57.526Z,92.00
2018-12-18T06:44:25.678Z,92.10
2018-12-18T06:46:53.743Z,92.30
2018-12-18T06:49:21.833Z,92.30
2018-12-18T06:51:49.894Z,92.30
2018-12-18T06:54:18.006Z,92.30
2018-12-18T06:56:46.063Z,92.30
2018-12-18T06:59:14.242Z,92.20
2018-12-18T07:01:42.298Z,92.10
2018-12-18T07:04:10.367Z,92.10
2018-12-18T07:06:38.461Z,92.10
2018-12-18T07:09:08.594Z,92.00
2018-12-18T07:11:36.647Z,91.90
2018-12-18T07:14:04.738Z,91.80
2018-12-18T07:16:33.571Z,91.70
2018-12-18T07:19:01.733Z,91.80
2018-12-18T07:24:32.807Z,91.70
2018-12-18T07:27:00.875Z,91.60
2018-12-18T07:29:28.933Z,91.70
2018-12-18T07:31:59.127Z,91.70
2018-12-18T07:34:33.237Z,91.70
2018-12-18T07:36:57.211Z,91.80
2018-12-18T07:39:25.259Z,91.80
2018-12-18T07:41:53.401Z,91.80
2018-12-18T07:44:21.491Z,91.90
2018-12-18T07:46:49.522Z,91.90
2018-12-18T07:49:17.598Z,91.90
2018-12-18T07:51:45.738Z,92.00
2018-12-18T07:54:13.782Z,92.10
2018-12-18T07:56:42.130Z,92.10
2018-12-18T07:59:10.190Z,92.20
2018-12-18T08:01:38.322Z,92.10
2018-12-18T08:04:06.409Z,92.10
2018-12-18T08:06:34.550Z,91.90
2018-12-18T08:09:02.822Z,91.60
2018-12-18T08:11:30.989Z,91.50
2018-12-18T08:14:00.188Z,91.40
2018-12-18T08:16:28.337Z,91.50
2018-12-18T08:18:56.390Z,91.60
2018-12-18T08:21:24.439Z,91.60
2018-12-18T08:23:52.578Z,91.70
2018-12-18T08:26:20.630Z,91.80
2018-12-18T08:28:48.704Z,91.90
2018-12-18T08:31:16.834Z,91.80
2018-12-18T08:33:44.895Z,92.00
2018-12-18T08:36:12.965Z,92.20
2018-12-18T08:38:41.238Z,92.60
2018-12-18T08:41:09.354Z,92.30
2018-12-18T08:43:37.483Z,92.30
2018-12-18T08:46:10.227Z,92.50
2018-12-18T08:48:35.668Z,92.30
2018-12-18T08:51:03.727Z,92.10
2018-12-18T08:53:31.797Z,92.00
2018-12-18T08:56:00.625Z,92.00
2018-12-18T08:58:28.729Z,92.00
2018-12-18T09:00:56.791Z,91.60
2018-12-18T09:03:24.853Z,91.30
2018-12-18T09:05:52.908Z,91.00
2018-12-18T09:08:21.014Z,90.80
2018-12-18T09:10:49.154Z,90.50
2018-12-18T09:13:17.217Z,90.40
2018-12-18T09:15:50.894Z,90.10
2018-12-18T09:18:18.954Z,89.60
2018-12-18T09:20:47.014Z,89.00
2018-12-18T09:23:15.078Z,88.20
2018-12-18T09:25:43.255Z,86.80
2018-12-18T09:28:11.324Z,85.90
2018-12-18T09:36:35.230Z,84.40
2018-12-18T09:39:12.204Z,84.30
2018-12-18T09:41:40.744Z,84.30
2018-12-18T09:44:10.803Z,83.80
2018-12-18T09:46:38.895Z,83.60
2018-12-18T09:49:06.944Z,82.80
2018-12-18T09:51:35.008Z,82.50
2018-12-18T09:54:03.125Z,81.90
2018-12-18T09:56:33.110Z,80.30
2018-12-18T09:59:01.193Z,79.20
2018-12-18T10:01:29.320Z,78.40
2018-12-18T10:03:57.409Z,77.50
2018-12-18T10:06:25.516Z,76.40
2018-12-18T10:08:53.592Z,76.50
2018-12-18T10:11:21.658Z,75.10
2018-12-18T10:13:49.726Z,75.00
2018-12-18T10:16:17.807Z,75.00
2018-12-18T10:18:45.888Z,75.70
2018-12-18T10:21:14.052Z,75.80
2018-12-18T10:23:43.338Z,76.30
2018-12-18T10:26:11.472Z,76.50
2018-12-18T10:28:39.527Z,76.60
2018-12-18T10:31:07.593Z,76.50
2018-12-18T10:33:35.751Z,78.50
2018-12-18T10:36:03.877Z,77.80
2018-12-18T10:38:32.106Z,78.60
2018-12-18T10:41:01.307Z,79.20
2018-12-18T10:43:29.402Z,79.40
2018-12-18T10:45:57.457Z,79.60
2018-12-18T10:48:25.525Z,78.70
2018-12-18T10:50:53.615Z,78.50
2018-12-18T10:53:21.684Z,79.40
2018-12-18T10:55:49.742Z,79.70
2018-12-18T10:58:23.830Z,79.40
2018-12-18T11:00:53.711Z,79.10
2018-12-18T11:03:21.959Z,79.40
2018-12-18T11:05:50.024Z,79.40
2018-12-18T11:08:18.170Z,80.10
2018-12-18T11:10:46.352Z,80.40
2018-12-18T11:13:17.290Z,80.90
2018-12-18T11:15:45.558Z,80.80
2018-12-18T11:18:13.723Z,80.80
2018-12-18T11:20:41.904Z,81.20
2018-12-18T11:23:09.965Z,81.30
2018-12-18T11:25:38.323Z,80.20
2018-12-18T11:28:06.446Z,80.50
2018-12-18T11:30:34.592Z,80.20
2018-12-18T11:33:02.654Z,80.50
2018-12-18T11:35:30.808Z,80.10
2018-12-18T11:37:58.875Z,80.50
2018-12-18T11:40:26.967Z,80.80
2018-12-18T11:42:55.034Z,80.70
2018-12-18T11:45:23.139Z,80.00
2018-12-18T11:47:51.241Z,79.60
2018-12-18T11:50:20.357Z,79.10
2018-12-18T11:52:48.407Z,78.60
2018-12-18T11:55:16.469Z,78.00
2018-12-18T11:57:44.615Z,77.50
2018-12-18T12:00:13.946Z,77.80
2018-12-18T12:02:42.937Z,77.60
2018-12-18T12:05:11.298Z,77.30
2018-12-18T12:07:39.571Z,77.10
2018-12-18T12:10:07.793Z,76.10
2018-12-18T12:12:35.849Z,75.30
2018-12-18T12:15:05.132Z,75.20
2018-12-18T12:17:33.332Z,75.10
2018-12-18T12:20:01.400Z,74.90
2018-12-18T12:22:29.582Z,74.70
2018-12-18T12:24:57.692Z,74.70
2018-12-18T12:27:31.211Z,74.70
2018-12-18T12:29:59.275Z,74.20
2018-12-18T12:32:27.358Z,74.30
2018-12-18T12:34:55.438Z,74.50
2018-12-18T12:37:23.495Z,74.60
2018-12-18T12:39:51.598Z,74.50
2018-12-18T12:42:20.795Z,75.20
2018-12-18T12:44:48.871Z,75.50
2018-12-18T12:47:16.971Z,75.10
2018-12-18T12:49:45.065Z,75.10
2018-12-18T12:52:13.310Z,75.20
2018-12-18T12:54:41.393Z,75.60
2018-12-18T12:57:09.551Z,76.00
2018-12-18T12:59:38.758Z,76.20
2018-12-18T13:02:06.870Z,76.80
2018-12-18T13:04:35.015Z,77.50
2018-12-18T13:07:03.122Z,77.20
2018-12-18T13:09:31.277Z,78.30
2018-12-18T13:11:59.342Z,77.80
2018-12-18T13:14:27.414Z,77.20
2018-12-18T13:16:55.487Z,77.00
2018-12-18T13:19:23.560Z,76.90
2018-12-18T13:21:51.627Z,76.10
2018-12-18T13:24:19.832Z,76.80
2018-12-18T13:26:47.902Z,76.90
2018-12-18T13:29:15.958Z,77.30
2018-12-18T13:31:44.150Z,77.10
2018-12-18T13:34:12.214Z,77.00
2018-12-18T13:36:43.129Z,77.50
2018-12-18T13:39:10.327Z,77.90
2018-12-18T13:41:39.186Z,78.20
2018-12-18T13:44:07.259Z,78.20
2018-12-18T13:46:35.317Z,78.10
2018-12-18T13:49:03.424Z,78.10
2018-12-18T13:51:31.486Z,78.10
2018-12-18T13:53:59.542Z,78.30
2018-12-18T13:56:27.610Z,78.70
2018-12-18T13:58:55.682Z,78.40
2018-12-18T14:01:23.980Z,78.70
2018-12-18T14:03:52.039Z,78.70
2018-12-18T14:06:21.235Z,78.80
2018-12-18T14:08:49.286Z,78.90
2018-12-18T14:11:17.412Z,78.80
2018-12-18T14:13:45.486Z,78.90
2018-12-18T14:16:13.564Z,79.20
2018-12-18T14:18:41.687Z,80.60
2018-12-18T14:21:09.740Z,79.60
2018-12-18T14:23:37.826Z,79.80
2018-12-18T14:26:07.751Z,80.00
2018-12-18T14:28:35.834Z,80.20
2018-12-18T14:31:03.902Z,80.60
2018-12-18T14:33:31.983Z,80.70
2018-12-18T14:36:00.050Z,80.70
2018-12-18T14:38:28.186Z,80.90
2018-12-18T14:40:56.280Z,81.00
2018-12-18T14:43:34.587Z,81.90
2018-12-18T14:46:04.181Z,81.10
2018-12-18T14:48:32.342Z,81.20
2018-12-18T14:54:15.097Z,81.40
2018-12-18T14:56:46.854Z,81.50
2018-12-18T14:59:17.356Z,81.60
2018-12-18T15:01:45.497Z,81.80
2018-12-18T15:04:13.596Z,81.90
2018-12-18T15:06:42.968Z,82.10
2018-12-18T15:09:13.054Z,82.30
2018-12-18T15:11:41.139Z,82.30
2018-12-18T15:14:09.292Z,82.30
2018-12-18T15:16:39.707Z,82.80
2018-12-18T15:19:07.775Z,82.90
2018-12-18T15:21:35.892Z,83.20
2018-12-18T15:24:22.082Z,83.40
2018-12-18T15:26:50.207Z,83.70
2018-12-18T15:29:19.299Z,83.80
2018-12-18T15:31:47.411Z,83.90
2018-12-18T15:34:15.499Z,84.10
2018-12-18T15:36:43.677Z,84.30
2018-12-18T15:39:11.754Z,84.30
2018-12-18T15:41:39.816Z,84.40
2018-12-18T15:44:07.908Z,84.60
2018-12-18T15:46:35.983Z,84.80
2018-12-18T15:49:04.111Z,85.20
2018-12-18T15:51:32.179Z,85.30
2018-12-18T15:54:00.353Z,85.30
2018-12-18T15:56:28.533Z,85.40
2018-12-18T15:58:56.623Z,85.60
2018-12-18T16:01:40.785Z,85.90
2018-12-18T16:04:08.855Z,86.50
2018-12-18T16:06:36.919Z,86.30
2018-12-18T16:09:08.155Z,86.40
2018-12-18T16:11:36.234Z,86.90
2018-12-18T16:14:04.470Z,86.80
2018-12-18T16:16:32.608Z,87.40
2018-12-18T16:19:00.659Z,87.30
2018-12-18T16:21:28.819Z,87.70
2018-12-18T16:23:56.916Z,87.60
2018-12-18T16:26:25.123Z,87.90
2018-12-18T16:28:53.971Z,87.90
2018-12-18T16:31:22.146Z,88.00
2018-12-18T16:33:50.222Z,88.10
2018-12-18T16:36:18.287Z,88.20
2018-12-18T16:38:46.351Z,88.40
2018-12-18T16:41:15.310Z,88.60
2018-12-18T16:43:43.357Z,88.60
2018-12-18T16:46:12.529Z,88.50
2018-12-18T16:48:40.631Z,88.70
2018-12-18T17:03:26.435Z,88.80
2018-12-18T17:06:07.812Z,89.00
2018-12-18T17:08:36.929Z,89.10
2018-12-18T17:11:24.661Z,89.20
2018-12-18T17:13:54.686Z,89.50
2018-12-18T17:16:23.109Z,89.30
2018-12-18T17:21:58.197Z,89.50
2018-12-18T17:24:26.246Z,89.60
2018-12-18T17:26:54.325Z,89.90
2018-12-18T17:29:22.424Z,89.70
2018-12-18T17:31:50.488Z,89.90
2018-12-18T17:34:19.754Z,89.80
2018-12-18T17:36:47.852Z,90.00
2018-12-18T17:39:15.954Z,90.10
2018-12-18T17:41:44.034Z,90.00
2018-12-18T17:44:12.162Z,90.00
2018-12-18T17:46:40.225Z,90.10
2018-12-18T17:49:08.282Z,90.10
2018-12-18T17:51:36.417Z,90.20
2018-12-18T17:54:04.512Z,90.10
2018-12-18T17:56:32.562Z,90.20
2018-12-18T17:59:00.610Z,90.10
2018-12-18T18:01:28.714Z,90.20
2018-12-18T18:03:56.766Z,90.20
2018-12-18T18:06:24.823Z,90.30
2018-12-18T18:08:52.920Z,90.30
2018-12-18T18:11:21.006Z,90.20
2018-12-18T18:13:49.071Z,90.30
2018-12-18T18:16:17.955Z,90.60
2018-12-18T18:18:46.005Z,90.30
2018-12-18T18:21:14.054Z,90.20
2018-12-18T18:23:42.116Z,90.30
2018-12-18T18:26:11.998Z,90.30
2018-12-18T18:28:40.063Z,90.40
2018-12-18T18:31:08.155Z,90.40
2018-12-18T18:33:37.331Z,90.30
2018-12-18T18:36:05.379Z,90.40
2018-12-18T18:38:33.435Z,90.30
2018-12-18T18:41:01.534Z,90.30
2018-12-18T18:43:29.609Z,90.40
2018-12-18T18:45:57.698Z,90.50
2018-12-18T18:48:25.759Z,90.40
2018-12-18T18:50:53.905Z,90.40
2018-12-18T18:53:22.055Z,90.40
2018-12-18T18:55:50.197Z,90.40
2018-12-18T18:58:19.474Z,90.40
2018-12-18T19:00:47.519Z,90.30
2018-12-18T19:03:15.599Z,90.30
2018-12-18T19:05:43.718Z,90.30
2018-12-18T19:08:11.810Z,90.30
2018-12-18T19:10:39.947Z,90.40
2018-12-18T19:13:08.006Z,90.40
2018-12-18T19:15:36.110Z,90.40
2018-12-18T19:18:04.183Z,90.30
2018-12-18T19:20:32.268Z,90.40
2018-12-18T19:23:00.327Z,90.30
2018-12-18T19:25:28.370Z,90.30
2018-12-18T19:27:56.456Z,90.30
2018-12-18T19:30:24.499Z,90.30
2018-12-18T19:32:52.855Z,90.30
2018-12-18T19:35:20.902Z,90.30
2018-12-18T19:37:48.954Z,90.30
2018-12-18T19:40:17.215Z,90.30
2018-12-18T19:42:45.347Z,90.30
2018-12-18T19:45:13.417Z,90.30
2018-12-18T19:47:41.558Z,90.30
2018-12-18T19:50:09.731Z,90.30
2018-12-18T19:52:37.792Z,90.30
2018-12-18T19:55:05.919Z,90.30
2018-12-18T19:57:33.962Z,90.30
2018-12-18T20:00:02.024Z,90.30
2018-12-18T20:02:30.162Z,90.30
2018-12-18T20:04:59.048Z,90.30
2018-12-18T20:07:27.127Z,90.30
2018-12-18T20:09:55.195Z,90.30
2018-12-18T20:12:23.676Z,90.30
2018-12-18T20:14:51.778Z,90.20
2018-12-18T20:17:20.045Z,90.20
2018-12-18T20:19:48.469Z,90.20
2018-12-18T20:22:16.514Z,90.10
2018-12-18T20:24:44.701Z,90.10
2018-12-18T20:27:12.751Z,90.10
2018-12-18T20:29:41.038Z,90.10
2018-12-18T20:32:09.093Z,90.10
2018-12-18T20:34:37.226Z,90.10
2018-12-18T20:37:05.315Z,90.00
2018-12-18T20:39:33.492Z,90.00
2018-12-18T20:42:01.538Z,90.00
2018-12-18T20:44:29.627Z,90.00
2018-12-18T20:46:57.811Z,89.90
2018-12-18T20:49:25.896Z,89.40
2018-12-18T20:51:53.946Z,89.70
2018-12-18T20:57:23.564Z,89.40
2018-12-18T20:59:52.839Z,88.80
2018-12-18T21:02:21.002Z,89.10
2018-12-18T21:04:49.153Z,89.10
2018-12-18T21:07:17.429Z,89.10
2018-12-18T21:09:45.586Z,89.00
2018-12-18T21:12:14.420Z,88.90
2018-12-18T21:14:42.518Z,88.80
2018-12-18T21:17:14.507Z,88.80
2018-12-18T21:19:42.871Z,88.60
2018-12-18T21:22:11.127Z,88.50
2018-12-18T21:24:39.281Z,88.50
2018-12-18T21:27:08.325Z,88.40
2018-12-18T21:29:36.441Z,88.10
2018-12-18T21:32:04.611Z,87.80
2018-12-18T21:34:33.308Z,87.70
2018-12-18T21:37:16.523Z,87.50
2018-12-18T21:39:45.498Z,87.40
2018-12-18T21:42:13.610Z,87.40
2018-12-18T21:44:41.825Z,87.40
2018-12-18T21:47:09.933Z,87.30
2018-12-18T21:49:39.255Z,87.30
2018-12-18T21:52:08.443Z,87.10
2018-12-18T21:54:36.519Z,87.10
2018-12-18T21:57:04.585Z,86.90
2018-12-18T21:59:33.597Z,86.80
2018-12-18T22:02:01.828Z,86.90
2018-12-18T22:04:30.230Z,86.60
2018-12-18T22:06:58.344Z,86.80
2018-12-18T22:09:26.456Z,86.50
2018-12-18T22:11:54.582Z,86.70
2018-12-18T22:14:22.700Z,86.30
2018-12-18T22:16:51.204Z,86.40
2018-12-18T22:19:21.756Z,86.50
2018-12-18T22:21:49.849Z,86.70
2018-12-18T22:24:18.037Z,86.70
2018-12-18T22:26:46.272Z,86.60
2018-12-18T22:29:14.517Z,86.70
2018-12-18T22:31:50.811Z,86.80
2018-12-18T22:34:19.385Z,86.80
2018-12-18T22:36:48.093Z,87.00
2018-12-18T22:39:18.464Z,87.70
2018-12-18T22:41:59.359Z,87.00
2018-12-18T22:44:35.264Z,86.80
2018-12-18T22:47:14.295Z,87.10
2018-12-18T22:49:43.125Z,87.20
2018-12-18T22:52:12.234Z,87.10
2018-12-18T22:54:42.208Z,87.10
2018-12-18T22:57:10.377Z,86.80
2018-12-18T23:02:36.362Z,86.60
2018-12-18T23:05:04.946Z,86.40
2018-12-18T23:07:33.005Z,86.50
2018-12-18T23:10:01.086Z,86.50
2018-12-18T23:12:29.128Z,86.70
2018-12-18T23:14:57.754Z,86.10
2018-12-18T23:17:25.838Z,86.00
2018-12-18T23:19:53.894Z,86.00
2018-12-18T23:22:21.951Z,85.60
2018-12-18T23:24:50.031Z,85.00
2018-12-18T23:27:18.094Z,84.80
2018-12-18T23:29:46.171Z,84.90
2018-12-18T23:32:14.214Z,84.50
2018-12-18T23:34:42.266Z,84.60
2018-12-18T23:37:10.364Z,84.20
2018-12-18T23:39:38.461Z,83.70
2018-12-18T23:42:06.568Z,82.90
2018-12-18T23:47:37.502Z,82.60
2018-12-18T23:50:06.270Z,82.60
2018-12-18T23:52:34.362Z,82.30
2018-12-18T23:55:02.474Z,81.30
2018-12-18T23:57:30.539Z,81.20
2018-12-18T23:59:58.583Z,81.20
